Ana Sayfa
METAR-TAF:

METAR-TAF

Havaalanları :

Cebelitarık Havalimanı

Cebelitarık, Cebelitarık

Enlem: 36-09N, Boylam: 005-21W, yükseklik: 5 m

Güncel hava durumu gözlemi

Rapor saat 03:50 UTC de 1 saat ve 8 dakika önce yapıldı.
Rüzgar batı/güneybatıdan 11 kt
Sıcaklık 20°C
Nem 83%
Basınç 1019 hPa
Görüş mesafesi 10 km veya daha fazla

METAR: LXGB 160350Z AUTO 25011KT 9999 // NCD 20/17 Q1019

Saat: 06:58 (04:58 UTC)

Tahmin

Rapor saat 04:09 UTC de 49 dakika önce yapıldı.
Ayın 16'si saat 04 UTC'den ayın 16'si saat 12 UTC'ye kadar geçerli Tahmin
Rüzgar batı/güneybatıdan 12 kt
Görüş mesafesi 10 km veya daha fazla
2200 ft yükseklikte az bulutlu
Olasılık 40% :
Geçici
ayın 16'si saat 09 UTC'den ayın 16'si saat 12 UTC'ye kadar
Rüzgar güney/güneybatıdan 14 kt

TAF: LXGB 160409Z 1604/1612 25012KT 9999 FEW022 PROB40 TEMPO 1609/1612 20014KT 520001

4.000'den fazla havaalanı için hava durumu gözlemleri ve tahminleri (METAR ve TAF raporları).

Kullanılabilir istasyonlar harita üzerinde sarı ve kırmızı noktalarla gösterilir.

İstasyonun adını görmek için fareyi noktanın üzerinde gezdirin.

Sonrasında hava gözlem ve tahminlerini görmek için tıklayın.

Haritayı değiştirmek için: yaklaştırmak için siyah artı işaretli yeşil düğmeye ve uzaklaştırmak için de eksi işaretli düğmeye hızla tıklayın; bitişik haritalar için yeşil okları kullanın.


METAR-TAF: